Time;durP1;ratioP1;P1;durP2;ratioP2;P2;SDS_P1;SDS_P2;PMS_P1;PMS_P2;Temp;Humidity;BMP_temperature;BMP_pressure;BME280_temperature;BME280_humidity;BME280_pressure;Samples;Min_cycle;Max_cycle;Signal;HPM_P1;HPM_P2
2022/01/28 00:00:17;;;;;;;23.75;15.20;;;;;;;15.42;39.02;93575.00;4915900;28;20160;-86
2022/01/28 00:02:56;;;;;;;18.27;12.52;;;;;;;15.45;39.07;93573.28;4931442;28;20036;-86
2022/01/28 00:05:22;;;;;;;21.67;14.07;;;;;;;15.43;39.10;93571.03;4930943;28;20048;-86
2022/01/28 00:07:49;;;;;;;22.00;15.35;;;;;;;15.48;39.01;93577.03;4915639;29;20024;-87
2022/01/28 00:10:16;;;;;;;19.05;14.02;;;;;;;15.45;38.94;93578.75;4915639;28;20095;-87
2022/01/28 00:13:02;;;;;;;18.50;14.00;;;;;;;15.45;39.02;93581.47;4944432;28;20039;-86
2022/01/28 00:15:37;;;;;;;21.90;14.55;;;;;;;15.50;38.93;93583.47;4931207;28;20043;-86
2022/01/28 00:37:37;;;;;;;20.65;14.02;;;;;;;15.41;39.38;93622.53;4915440;29;20127;-87
2022/01/28 00:40:03;;;;;;;18.13;11.80;;;;;;;15.47;38.81;93622.59;4915832;29;20564;-86
2022/01/28 00:42:28;;;;;;;21.30;14.40;;;;;;;15.48;39.03;93629.53;4916015;29;20080;-86
2022/01/28 00:44:56;;;;;;;18.63;12.18;;;;;;;15.47;39.01;93613.66;4916166;29;20032;-88
2022/01/28 00:47:21;;;;;;;14.65;11.35;;;;;;;15.46;39.36;93623.81;4899794;29;20040;-86
2022/01/28 00:49:46;;;;;;;14.98;11.32;;;;;;;15.50;39.10;93623.59;4926653;28;20067;-86
2022/01/28 00:52:12;;;;;;;16.85;12.73;;;;;;;15.49;39.04;93633.00;4934068;28;20451;-86
2022/01/28 00:54:37;;;;;;;21.70;14.85;;;;;;;15.48;39.07;93629.53;4918735;29;20040;-86
2022/01/28 00:57:03;;;;;;;17.45;11.10;;;;;;;15.44;39.11;93627.03;4917712;28;20039;-86
2022/01/28 00:59:28;;;;;;;17.85;12.02;;;;;;;15.51;39.18;93627.81;4950721;28;20039;-88
2022/01/28 01:01:55;;;;;;;20.67;14.15;;;;;;;15.44;39.10;93615.38;4934688;28;20062;-87
2022/01/28 01:04:20;;;;;;;13.00;10.25;;;;;;;15.48;39.12;93632.25;4921006;28;20062;-86
2022/01/28 01:06:45;;;;;;;13.88;10.00;;;;;;;15.49;39.07;93620.13;4922553;29;20035;-86
2022/01/28 01:09:11;;;;;;;16.42;11.70;;;;;;;15.44;39.19;93624.31;4954144;28;20042;-87
2022/01/28 01:11:39;;;;;;;13.13;10.18;;;;;;;15.47;39.03;93625.31;4922631;29;20039;-86
2022/01/28 01:14:05;;;;;;;13.90;10.60;;;;;;;15.47;39.22;93619.13;4921945;28;20105;-88
2022/01/28 01:16:38;;;;;;;12.95;9.93;;;;;;;15.50;39.19;93629.78;4918236;29;20040;-86
2022/01/28 01:21:38;;;;;;;22.08;14.88;;;;;;;15.54;38.85;93626.84;4933562;29;20040;-86
2022/01/28 01:24:04;;;;;;;12.70;8.73;;;;;;;15.49;39.19;93633.75;4903424;29;20031;-86
2022/01/28 01:26:35;;;;;;;13.00;9.80;;;;;;;15.48;38.93;93643.16;4902321;29;20439;-86
2022/01/28 01:29:01;;;;;;;15.65;10.35;;;;;;;15.53;38.98;93645.16;4935322;29;20040;-86
2022/01/28 01:31:26;;;;;;;12.85;9.32;;;;;;;15.53;39.24;93636.25;4917127;29;20044;-86
2022/01/28 01:34:02;;;;;;;14.07;10.35;;;;;;;15.44;39.19;93643.38;4902477;29;20169;-86
2022/01/28 01:36:27;;;;;;;14.68;9.38;;;;;;;15.50;38.82;93635.25;4903243;29;20074;-86
2022/01/28 01:38:53;;;;;;;15.88;11.50;;;;;;;15.47;38.87;93625.31;4902626;29;20048;-87
2022/01/28 01:41:29;;;;;;;11.77;8.73;;;;;;;15.44;39.31;93631.72;4918048;29;20043;-87
2022/01/28 01:54:19;;;;;;;17.08;12.25;;;;;;;15.46;39.38;93653.78;4926026;28;20314;-86
2022/01/28 01:56:45;;;;;;;13.13;9.60;;;;;;;15.49;39.27;93657.53;4937245;28;20475;-87
2022/01/28 01:59:11;;;;;;;10.25;8.05;;;;;;;15.48;38.90;93658.75;4936336;28;20039;-86
2022/01/28 02:01:38;;;;;;;11.30;8.70;;;;;;;15.54;38.98;93645.91;4920902;29;20039;-86
2022/01/28 02:04:04;;;;;;;15.93;11.63;;;;;;;15.51;39.05;93655.06;4936634;28;20039;-86
2022/01/28 02:06:29;;;;;;;9.52;7.88;;;;;;;15.45;39.03;93665.91;4904811;29;20521;-88
2022/01/28 02:08:56;;;;;;;13.02;9.02;;;;;;;15.46;39.09;93664.69;4912331;29;20027;-86
2022/01/28 02:11:21;;;;;;;12.43;9.52;;;;;;;15.45;38.95;93660.47;4922723;28;20348;-86
2022/01/28 02:13:49;;;;;;;11.55;8.43;;;;;;;15.40;39.30;93672.81;4935388;28;20047;-86
2022/01/28 02:16:14;;;;;;;12.48;9.00;;;;;;;15.48;39.24;93680.53;4910821;29;20095;-87
2022/01/28 02:18:40;;;;;;;10.65;7.70;;;;;;;15.48;39.09;93678.56;4904358;29;20035;-87
2022/01/28 02:21:09;;;;;;;15.57;11.43;;;;;;;15.53;39.28;93677.13;4934119;28;20527;-86
2022/01/28 02:23:35;;;;;;;13.13;9.25;;;;;;;15.48;39.27;93670.41;4901764;29;20039;-88
2022/01/28 02:26:02;;;;;;;11.18;8.10;;;;;;;15.56;39.10;93660.59;4917340;29;20060;-86
2022/01/28 02:28:30;;;;;;;11.23;8.02;;;;;;;15.52;38.80;93683.81;4900987;29;20035;-86
2022/01/28 02:30:55;;;;;;;12.55;9.13;;;;;;;15.46;38.96;93678.31;4901302;29;20034;-87
2022/01/28 02:33:24;;;;;;;10.82;8.10;;;;;;;15.50;39.22;93688.97;4932019;28;20032;-86
2022/01/28 02:35:50;;;;;;;12.70;9.27;;;;;;;15.50;38.93;93700.63;4917520;29;20027;-86
2022/01/28 02:38:17;;;;;;;13.23;9.57;;;;;;;15.44;39.32;93684.22;4916108;29;20091;-86
2022/01/28 02:40:47;;;;;;;15.00;10.45;;;;;;;15.46;39.22;93702.81;4916594;29;20028;-87
2022/01/28 02:45:42;;;;;;;9.20;7.50;;;;;;;15.48;39.13;93688.72;4917496;29;20046;-86
2022/01/28 02:48:15;;;;;;;8.43;7.25;;;;;;;15.43;39.53;93701.06;4912180;28;20396;-87
2022/01/28 02:50:48;;;;;;;18.27;12.05;;;;;;;15.41;39.20;93707.00;4935160;28;20028;-87
2022/01/28 02:53:24;;;;;;;13.88;9.60;;;;;;;15.46;39.47;93702.06;4905951;28;20042;-89
2022/01/28 02:55:57;;;;;;;10.20;7.30;;;;;;;15.49;38.74;93690.22;4936808;28;20091;-86
2022/01/28 02:58:24;;;;;;;12.07;8.63;;;;;;;15.46;39.20;93700.09;4935089;28;20069;-87
2022/01/28 03:00:50;;;;;;;11.55;7.75;;;;;;;15.49;39.22;93706.56;4934078;28;20388;-87
2022/01/28 03:03:18;;;;;;;12.45;8.93;;;;;;;15.47;39.14;93687.22;4952069;28;20507;-87
2022/01/28 03:05:43;;;;;;;10.70;7.60;;;;;;;15.41;39.32;93695.34;4935524;29;20623;-89
2022/01/28 03:08:12;;;;;;;12.07;8.68;;;;;;;15.47;39.18;93695.41;4935109;28;20043;-87
2022/01/28 03:10:45;;;;;;;9.35;7.35;;;;;;;15.49;39.00;93695.66;4935366;28;20042;-86
2022/01/28 03:15:41;;;;;;;11.13;7.85;;;;;;;15.41;39.52;93703.53;4935804;28;20054;-89
2022/01/28 03:18:12;;;;;;;11.93;8.68;;;;;;;15.43;39.38;93703.78;4934645;28;20086;-86
2022/01/28 03:20:44;;;;;;;8.70;6.50;;;;;;;15.47;39.30;93709.75;4934878;28;20486;-86
2022/01/28 03:23:11;;;;;;;9.57;7.63;;;;;;;15.42;39.22;93711.22;4919526;28;20046;-87
2022/01/28 03:25:41;;;;;;;13.95;8.82;;;;;;;15.47;39.07;93696.16;4919814;29;20034;-87
2022/01/28 03:28:06;;;;;;;12.70;9.23;;;;;;;15.45;39.31;93728.56;4935281;28;20672;-86
2022/01/28 03:30:32;;;;;;;9.45;7.35;;;;;;;15.47;39.51;93709.75;4934805;28;20039;-87
2022/01/28 03:32:57;;;;;;;10.73;7.13;;;;;;;15.48;39.19;93724.13;4919438;29;20039;-86
2022/01/28 03:35:23;;;;;;;11.50;8.52;;;;;;;15.42;39.30;93716.66;4918807;28;20614;-86
2022/01/28 03:37:53;;;;;;;12.32;8.82;;;;;;;15.44;39.19;93729.81;4950781;28;20520;-86
2022/01/28 03:40:20;;;;;;;12.23;7.82;;;;;;;15.44;39.09;93730.56;4951015;28;20101;-86
2022/01/28 03:42:45;;;;;;;10.13;8.18;;;;;;;15.50;39.23;93740.75;4951684;28;20047;-86
2022/01/28 03:45:11;;;;;;;14.73;10.18;;;;;;;15.48;39.36;93735.03;4934016;28;20051;-86
2022/01/28 03:47:36;;;;;;;15.35;10.25;;;;;;;15.43;39.25;93739.19;4916259;29;20063;-87
2022/01/28 03:50:01;;;;;;;9.80;6.80;;;;;;;15.39;39.24;93742.13;4912559;29;20036;-86
2022/01/28 03:52:27;;;;;;;8.75;6.40;;;;;;;15.44;39.06;93740.69;4918943;29;20043;-86
2022/01/28 03:54:52;;;;;;;8.63;7.20;;;;;;;15.41;39.31;93750.56;4919304;29;20035;-86
2022/01/28 03:57:18;;;;;;;10.48;6.93;;;;;;;15.43;39.42;93739.19;4934268;28;20044;-87
2022/01/28 03:59:43;;;;;;;9.93;6.80;;;;;;;15.44;39.05;93757.03;4919926;29;20039;-87
2022/01/28 04:02:10;;;;;;;12.43;8.05;;;;;;;15.48;39.29;93754.09;4934777;28;20051;-87
2022/01/28 04:12:47;;;;;;;9.80;6.88;;;;;;;15.44;39.22;93744.16;4913117;29;20104;-87
2022/01/28 04:15:23;;;;;;;13.50;9.50;;;;;;;15.45;39.16;93750.38;4881652;28;20036;-88
2022/01/28 04:17:49;;;;;;;11.00;8.60;;;;;;;15.46;39.07;93745.66;4897359;29;20591;-87
2022/01/28 04:20:15;;;;;;;9.27;6.70;;;;;;;15.47;39.36;93750.63;4902955;29;20069;-89
2022/01/28 04:22:40;;;;;;;11.20;7.90;;;;;;;15.47;39.76;93747.16;4896482;29;20032;-88
2022/01/28 04:25:06;;;;;;;9.98;7.50;;;;;;;15.46;39.21;93751.84;4896430;28;20067;-87
2022/01/28 04:27:31;;;;;;;7.47;5.50;;;;;;;15.48;39.00;93754.09;4896592;29;20032;-86
2022/01/28 04:29:56;;;;;;;7.40;5.95;;;;;;;15.50;39.29;93751.66;4897663;29;20044;-87
2022/01/28 04:32:24;;;;;;;8.18;6.25;;;;;;;15.50;39.29;93757.84;4880684;29;20396;-87
2022/01/28 04:34:49;;;;;;;13.32;6.85;;;;;;;15.46;39.31;93773.66;4912725;29;20044;-88
2022/01/28 04:37:25;;;;;;;9.85;7.75;;;;;;;15.44;39.24;93752.34;4895982;29;20067;-87
2022/01/28 04:50:51;;;;;;;8.35;5.82;;;;;;;15.47;39.20;93774.41;4914398;28;20399;-87
2022/01/28 04:58:50;;;;;;;7.78;6.10;;;;;;;15.49;38.79;93777.41;4930832;28;20042;-86
2022/01/28 05:03:57;;;;;;;;;;;;;;;;;;;;;
2022/01/28 05:14:31;;;;;;;7.28;5.38;;;;;;;15.51;39.14;93778.41;4934342;28;20605;-86
2022/01/28 05:27:38;;;;;;;7.90;5.88;;;;;;;15.46;39.45;93808.31;4897022;29;20041;-87
2022/01/28 05:30:06;;;;;;;8.48;6.07;;;;;;;15.46;39.47;93805.59;4882722;29;20041;-88
2022/01/28 05:32:31;;;;;;;9.07;6.35;;;;;;;15.53;39.08;93799.72;4880864;29;20047;-86
2022/01/28 05:34:56;;;;;;;8.55;6.22;;;;;;;15.51;39.00;93810.34;4865256;29;20044;-87
2022/01/28 05:37:22;;;;;;;8.55;5.85;;;;;;;15.53;39.12;93803.19;4865353;29;20052;-87
2022/01/28 05:39:47;;;;;;;8.88;6.57;;;;;;;15.48;39.12;93801.16;4880448;29;20041;-86
2022/01/28 05:42:12;;;;;;;10.10;6.70;;;;;;;15.43;39.30;93805.34;4880076;29;20045;-86
2022/01/28 05:44:38;;;;;;;9.15;6.45;;;;;;;15.48;39.27;93819.50;4881137;29;20053;-87
2022/01/28 05:47:04;;;;;;;10.27;6.60;;;;;;;15.47;39.25;93826.16;4896338;29;20040;-86
2022/01/28 05:49:30;;;;;;;11.60;8.15;;;;;;;15.45;39.08;93823.91;4923263;28;20051;-87
2022/01/28 05:51:55;;;;;;;7.72;5.15;;;;;;;15.52;39.12;93830.94;4917888;29;20035;-87
2022/01/28 05:54:21;;;;;;;9.82;6.50;;;;;;;15.49;39.19;93824.47;4932815;29;20070;-87
2022/01/28 05:56:46;;;;;;;8.82;6.47;;;;;;;15.48;39.29;93822.22;4933915;29;20326;-87
2022/01/28 05:59:12;;;;;;;7.45;5.43;;;;;;;15.49;39.27;93832.63;4918210;28;20036;-87
2022/01/28 06:01:38;;;;;;;7.30;5.30;;;;;;;15.47;39.50;93837.06;4934459;29;20050;-87
2022/01/28 06:04:03;;;;;;;13.13;8.18;;;;;;;15.50;39.26;93836.84;4918495;29;20035;-86
2022/01/28 06:06:30;;;;;;;8.68;6.95;;;;;;;15.49;39.14;93840.81;4936622;29;20103;-86
2022/01/28 06:08:55;;;;;;;9.20;5.78;;;;;;;15.45;39.43;93840.28;4928884;29;20442;-87
2022/01/28 06:11:22;;;;;;;8.07;6.05;;;;;;;15.44;39.54;93844.97;4923837;28;20036;-87
2022/01/28 06:13:48;;;;;;;7.88;5.78;;;;;;;15.47;39.08;93845.25;4911190;29;20035;-87
2022/01/28 06:16:14;;;;;;;9.82;7.47;;;;;;;15.46;39.08;93849.94;4906847;28;20087;-87
2022/01/28 06:18:39;;;;;;;7.80;6.15;;;;;;;15.41;39.42;93845.94;4921247;29;20043;-87
2022/01/28 06:21:05;;;;;;;11.38;7.22;;;;;;;15.42;39.43;93855.59;4936136;28;20047;-87
2022/01/28 06:23:31;;;;;;;6.38;4.85;;;;;;;15.47;39.20;93854.16;4901672;29;20047;-88
2022/01/28 06:25:56;;;;;;;10.63;6.95;;;;;;;15.47;39.62;93856.13;4884475;29;20043;-87
2022/01/28 06:28:21;;;;;;;9.35;5.65;;;;;;;15.48;39.15;93852.94;4867606;29;20054;-87
2022/01/28 06:30:47;;;;;;;11.15;6.75;;;;;;;15.43;39.29;93854.38;4883429;29;20048;-87
2022/01/28 06:33:14;;;;;;;8.48;5.88;;;;;;;15.44;39.40;93860.56;4882764;29;20036;-87
2022/01/28 06:35:40;;;;;;;14.10;7.93;;;;;;;15.53;39.42;93851.50;4882972;29;20038;-87
2022/01/28 06:38:06;;;;;;;12.25;8.82;;;;;;;15.45;39.30;93862.06;4898110;29;20048;-87
2022/01/28 06:40:31;;;;;;;13.85;9.15;;;;;;;15.43;39.40;93870.72;4867201;29;20024;-86
2022/01/28 06:42:56;;;;;;;5.72;4.25;;;;;;;15.43;39.24;93880.88;4898524;29;20267;-87
2022/01/28 06:45:22;;;;;;;6.90;5.40;;;;;;;15.42;39.46;93869.22;4897774;29;20056;-86
2022/01/28 06:47:47;;;;;;;17.13;10.45;;;;;;;15.43;39.45;93872.69;4919890;29;20035;-86
2022/01/28 06:50:14;;;;;;;7.05;5.20;;;;;;;15.43;39.40;93865.25;4929726;28;20043;-87
2022/01/28 06:52:40;;;;;;;5.07;3.70;;;;;;;15.41;39.27;93875.91;4932985;28;20043;-87
2022/01/28 06:55:06;;;;;;;8.70;6.40;;;;;;;15.46;39.25;93890.06;4919842;28;20114;-88
2022/01/28 06:57:32;;;;;;;4.05;3.28;;;;;;;15.41;39.40;93894.97;4952575;28;20475;-87
2022/01/28 06:59:57;;;;;;;10.85;6.43;;;;;;;15.47;39.27;93894.28;4920471;29;20038;-87
2022/01/28 07:02:22;;;;;;;14.10;8.52;;;;;;;15.49;39.13;93898.03;4919575;28;20035;-85
2022/01/28 07:04:48;;;;;;;6.38;4.28;;;;;;;15.46;39.42;93912.59;4951766;28;20035;-85
2022/01/28 07:07:14;;;;;;;10.90;7.07;;;;;;;15.45;39.34;93916.56;4935158;28;20039;-87
2022/01/28 07:09:39;;;;;;;5.45;4.20;;;;;;;15.51;39.42;93919.34;4935757;28;20039;-85
2022/01/28 07:12:05;;;;;;;8.00;5.57;;;;;;;15.47;39.31;93925.00;4917220;28;20406;-87
2022/01/28 07:14:31;;;;;;;4.35;3.50;;;;;;;15.40;39.30;93928.13;4918918;29;20035;-87
2022/01/28 07:16:56;;;;;;;9.25;3.63;;;;;;;15.41;39.29;93933.09;4928506;28;20087;-87
2022/01/28 07:19:21;;;;;;;4.18;3.20;;;;;;;15.47;38.93;93940.59;4900197;29;20047;-88
2022/01/28 07:21:47;;;;;;;4.75;3.50;;;;;;;15.46;39.28;93944.53;4933639;29;20091;-88
2022/01/28 07:24:12;;;;;;;75.38;15.55;;;;;;;15.42;39.33;93942.78;4931700;29;20047;-87
2022/01/28 07:26:38;;;;;;;14.80;6.40;;;;;;;15.44;39.15;93942.28;4884276;29;20058;-86
2022/01/28 07:29:03;;;;;;;15.60;8.05;;;;;;;15.43;39.51;93936.09;4914718;29;20098;-86
2022/01/28 07:31:30;;;;;;;25.58;10.63;;;;;;;15.43;39.37;93940.81;4932764;29;20036;-87
2022/01/28 07:33:55;;;;;;;17.33;8.23;;;;;;;15.48;39.47;93926.50;4934782;29;20035;-87
2022/01/28 07:36:20;;;;;;;17.05;6.22;;;;;;;15.44;39.36;93923.22;4896936;28;20039;-87
2022/01/28 07:38:46;;;;;;;15.80;7.20;;;;;;;15.48;39.29;93912.13;4918447;29;20189;-86
2022/01/28 07:41:11;;;;;;;14.55;7.15;;;;;;;15.47;39.13;93933.16;4918440;28;20078;-86
2022/01/28 07:43:39;;;;;;;12.05;7.72;;;;;;;15.49;39.50;93940.88;4945968;29;20039;-86
2022/01/28 07:46:05;;;;;;;21.48;8.40;;;;;;;15.51;39.19;93935.69;4920183;28;20046;-87
2022/01/28 07:48:30;;;;;;;26.20;10.98;;;;;;;15.54;39.34;93938.22;4908504;29;20115;-86
2022/01/28 07:50:56;;;;;;;27.75;11.25;;;;;;;15.49;39.50;93952.50;4935870;28;20450;-86
2022/01/28 07:53:21;;;;;;;17.77;10.25;;;;;;;15.48;39.21;93964.63;4934975;28;20350;-86
2022/01/28 07:55:47;;;;;;;29.00;11.80;;;;;;;15.47;39.41;93962.38;4903744;29;20035;-88
2022/01/28 07:58:12;;;;;;;34.70;10.85;;;;;;;15.55;39.50;93968.94;4951674;28;20403;-87
2022/01/28 08:00:42;;;;;;;36.80;13.25;;;;;;;15.57;39.43;93975.44;4934436;28;20039;-87
2022/01/28 08:03:07;;;;;;;24.17;9.65;;;;;;;15.50;39.06;93983.25;4933296;28;20047;-87
2022/01/28 08:05:33;;;;;;;21.98;10.32;;;;;;;15.57;39.28;93980.13;4918713;29;20322;-86
2022/01/28 08:08:03;;;;;;;21.95;9.80;;;;;;;15.58;39.25;93978.91;4902624;29;20031;-86
2022/01/28 08:10:29;;;;;;;25.83;12.00;;;;;;;15.51;39.32;93985.47;4934884;28;20071;-86
2022/01/28 08:12:54;;;;;;;33.97;15.05;;;;;;;15.52;39.57;93994.41;4927451;28;20024;-86
2022/01/28 08:15:20;;;;;;;40.75;15.77;;;;;;;15.57;39.25;93996.50;4896275;29;20059;-86
2022/01/28 08:17:45;;;;;;;40.65;17.15;;;;;;;15.53;39.18;93999.38;4929230;28;20032;-86
2022/01/28 08:20:11;;;;;;;40.50;18.08;;;;;;;15.57;39.10;94001.94;4892368;29;20032;-86
2022/01/28 08:22:49;;;;;;;41.25;17.63;;;;;;;15.53;39.41;93988.47;4895830;29;20226;-86
2022/01/28 08:25:18;;;;;;;44.55;16.55;;;;;;;15.61;39.08;94000.47;4879803;29;20032;-86
2022/01/28 08:27:44;;;;;;;48.08;17.35;;;;;;;15.51;39.22;94001.09;4897743;29;20466;-86
2022/01/28 08:30:11;;;;;;;36.35;16.17;;;;;;;15.58;39.24;94000.72;4932075;28;20134;-85
2022/01/28 08:32:37;;;;;;;43.58;17.08;;;;;;;15.55;39.02;94009.81;4899978;29;20043;-86
2022/01/28 08:35:02;;;;;;;35.92;14.63;;;;;;;15.54;39.10;93995.44;4884909;28;20044;-86
2022/01/28 08:37:27;;;;;;;46.60;16.67;;;;;;;15.60;39.18;94009.88;4885078;29;20084;-86
2022/01/28 08:39:53;;;;;;;28.45;14.27;;;;;;;15.60;39.30;94011.84;4915209;29;20047;-86
2022/01/28 08:42:19;;;;;;;37.08;15.30;;;;;;;15.61;39.47;94005.94;4918055;28;20411;-85
2022/01/28 08:44:46;;;;;;;170.40;111.75;;;;;;;15.59;39.64;94005.66;4917936;29;20051;-86
2022/01/28 08:47:11;;;;;;;55.97;25.88;;;;;;;15.63;39.43;94000.75;4905086;28;20040;-87
2022/01/28 08:49:37;;;;;;;64.50;23.13;;;;;;;15.68;39.13;94016.44;4902606;29;20051;-87
2022/01/28 08:52:03;;;;;;;34.55;14.93;;;;;;;15.62;39.57;94014.84;4890436;29;20416;-86
2022/01/28 08:54:29;;;;;;;29.92;13.40;;;;;;;15.64;39.26;94017.84;4898859;29;20127;-87
2022/01/28 08:56:54;;;;;;;23.85;12.70;;;;;;;15.70;39.15;94015.94;4904170;29;20040;-86
2022/01/28 08:59:20;;;;;;;29.23;12.93;;;;;;;15.65;39.27;94025.56;4871383;29;20064;-86
2022/01/28 09:01:47;;;;;;;35.05;16.13;;;;;;;15.62;39.23;94023.78;4868350;29;20067;-87
2022/01/28 09:04:13;;;;;;;34.15;14.73;;;;;;;15.62;39.29;94031.97;4907460;28;20062;-88
2022/01/28 09:06:38;;;;;;;43.38;16.02;;;;;;;15.61;39.22;94025.00;4916554;29;20410;-86
2022/01/28 09:09:04;;;;;;;36.20;17.48;;;;;;;15.61;39.35;94046.81;4900360;29;20040;-86
2022/01/28 09:11:33;;;;;;;39.60;20.02;;;;;;;15.60;39.47;94050.75;4901853;29;20096;-85
2022/01/28 09:13:59;;;;;;;39.63;19.55;;;;;;;15.59;39.18;94051.97;4888296;29;20511;-86
2022/01/28 09:16:24;;;;;;;54.38;20.95;;;;;;;15.68;39.52;94048.38;4921711;28;20050;-87
2022/01/28 09:18:50;;;;;;;33.10;17.25;;;;;;;15.60;39.42;94055.47;4904991;29;20040;-86
2022/01/28 09:21:15;;;;;;;40.05;19.45;;;;;;;15.58;39.57;94058.69;4911728;28;20509;-87
2022/01/28 09:23:41;;;;;;;44.70;19.13;;;;;;;15.63;39.70;94043.59;4905271;29;20507;-86
2022/01/28 09:26:07;;;;;;;39.83;19.85;;;;;;;15.68;39.20;94062.00;4918101;28;20036;-86
2022/01/28 09:28:32;;;;;;;50.55;22.02;;;;;;;15.62;39.35;94055.72;4883859;29;20037;-88
2022/01/28 09:30:59;;;;;;;55.88;21.52;;;;;;;15.66;39.33;94064.47;4887996;29;20042;-85
2022/01/28 09:33:24;;;;;;;56.55;29.10;;;;;;;15.58;39.71;94058.69;4900379;29;20043;-85
2022/01/28 09:35:49;;;;;;;63.38;25.67;;;;;;;15.63;39.58;94057.25;4904490;29;20043;-84
2022/01/28 09:38:16;;;;;;;44.03;21.73;;;;;;;15.64;39.49;94056.00;4911279;28;20454;-86
2022/01/28 09:40:42;;;;;;;62.13;23.80;;;;;;;15.64;39.33;94062.22;4901588;29;20060;-86
2022/01/28 09:43:08;;;;;;;55.15;23.48;;;;;;;15.62;39.56;94061.19;4902874;28;20039;-86
2022/01/28 09:45:34;;;;;;;74.13;46.20;;;;;;;15.63;39.56;94063.44;4903704;29;20059;-86
2022/01/28 09:48:00;;;;;;;57.60;28.75;;;;;;;15.63;39.35;94066.16;4928037;28;20042;-84
2022/01/28 09:50:29;;;;;;;53.42;25.90;;;;;;;15.63;39.67;94063.44;4910934;28;20063;-87
2022/01/28 09:52:55;;;;;;;51.17;24.85;;;;;;;15.64;39.33;94053.28;4903483;29;20469;-85
2022/01/28 09:55:21;;;;;;;66.88;27.63;;;;;;;15.65;39.41;94071.13;4901040;28;20040;-84
2022/01/28 09:57:51;;;;;;;63.75;26.67;;;;;;;15.76;39.47;94072.03;4901249;29;20095;-86
2022/01/28 10:00:16;;;;;;;48.97;24.08;;;;;;;15.77;39.37;94076.25;4901466;28;20040;-85
2022/01/28 10:03:03;;;;;;;242.15;150.30;;;;;;;15.74;39.77;94076.47;4916791;29;20463;-86
2022/01/28 10:05:29;;;;;;;164.25;56.22;;;;;;;15.74;39.12;94063.59;4897047;29;20036;-85
2022/01/28 10:08:02;;;;;;;46.92;22.90;;;;;;;15.74;39.15;94077.22;4915619;28;20055;-86
2022/01/28 10:10:41;;;;;;;50.22;25.27;;;;;;;15.71;39.28;94082.88;4920874;28;20040;-86
2022/01/28 10:13:11;;;;;;;49.20;20.00;;;;;;;15.70;39.38;94089.53;4932986;28;20067;-84
2022/01/28 10:15:36;;;;;;;46.70;23.35;;;;;;;15.68;39.23;94094.72;4941451;28;20035;-84
2022/01/28 10:18:02;;;;;;;42.78;22.92;;;;;;;15.69;39.50;94088.03;4908547;29;20098;-85
2022/01/28 10:20:28;;;;;;;44.75;22.90;;;;;;;15.67;39.40;94095.94;4916234;29;20053;-85
2022/01/28 10:22:58;;;;;;;46.55;21.48;;;;;;;15.66;39.67;94097.16;4901529;29;20046;-85
2022/01/28 10:25:25;;;;;;;36.50;19.00;;;;;;;15.64;39.47;94094.16;4899134;29;20047;-85
2022/01/28 10:28:09;;;;;;;38.97;21.33;;;;;;;15.65;39.37;94098.41;4896730;29;20135;-85
2022/01/28 10:30:35;;;;;;;42.72;19.83;;;;;;;15.63;39.67;94100.84;4916323;29;20523;-85
2022/01/28 10:33:11;;;;;;;36.47;18.27;;;;;;;15.66;39.39;94095.19;4918210;29;20032;-85
2022/01/28 10:35:38;;;;;;;47.40;17.55;;;;;;;15.67;39.60;94098.66;4886219;29;20138;-85
2022/01/28 10:38:26;;;;;;;31.17;15.05;;;;;;;15.66;39.26;94097.91;4901785;28;20039;-85
2022/01/28 10:41:10;;;;;;;38.35;17.90;;;;;;;15.67;39.53;94099.41;4917869;29;20816;-85
2022/01/28 10:43:43;;;;;;;35.95;18.55;;;;;;;15.68;39.52;94100.16;4934136;29;20050;-84
2022/01/28 10:46:08;;;;;;;36.55;20.25;;;;;;;15.66;39.46;94097.91;4900007;28;20601;-84
2022/01/28 10:48:49;;;;;;;30.17;18.23;;;;;;;15.63;39.70;94109.00;4885074;29;20105;-84
2022/01/28 10:51:16;;;;;;;50.00;25.77;;;;;;;15.63;39.61;94095.38;4935744;28;20056;-85
2022/01/28 10:53:41;;;;;;;45.90;23.98;;;;;;;15.63;39.65;94106.28;4952299;28;20039;-85
2022/01/28 10:56:11;;;;;;;52.08;26.88;;;;;;;15.67;39.52;94109.56;4951890;28;20399;-85
2022/01/28 10:58:38;;;;;;;55.78;30.50;;;;;;;15.65;39.78;94099.16;4934895;28;20042;-85
2022/01/28 11:01:03;;;;;;;53.65;27.98;;;;;;;15.63;39.69;94104.31;4934250;28;20495;-86
2022/01/28 11:03:29;;;;;;;61.85;30.00;;;;;;;15.72;39.23;94098.00;4920301;29;20051;-86
2022/01/28 11:05:58;;;;;;;53.15;28.60;;;;;;;15.66;39.46;94110.78;4911795;29;20043;-86
2022/01/28 11:08:29;;;;;;;64.07;32.50;;;;;;;15.66;39.67;94100.66;4900716;28;20498;-86
2022/01/28 11:10:54;;;;;;;51.80;29.90;;;;;;;15.65;39.54;94087.50;4885431;29;20496;-85
2022/01/28 11:13:20;;;;;;;55.80;28.63;;;;;;;15.66;39.48;94099.91;4924639;28;20044;-85
2022/01/28 11:15:45;;;;;;;47.35;27.90;;;;;;;15.66;39.44;94091.72;4884540;29;20039;-85
2022/01/28 11:18:11;;;;;;;47.33;28.85;;;;;;;15.65;39.71;94092.94;4929505;28;20402;-85
2022/01/28 11:20:43;;;;;;;46.45;26.48;;;;;;;15.71;39.25;94093.78;4934915;28;20443;-85
2022/01/28 11:23:33;;;;;;;44.03;23.25;;;;;;;15.69;39.53;94096.97;4890427;28;20730;-85
2022/01/28 11:26:05;;;;;;;43.65;23.08;;;;;;;15.73;39.27;94094.78;4912078;29;20044;-85
2022/01/28 11:28:47;;;;;;;46.85;24.27;;;;;;;15.73;39.53;94089.34;4913416;29;20070;-85
2022/01/28 11:31:13;;;;;;;43.70;24.83;;;;;;;15.69;39.58;94094.25;4882208;28;20044;-85
2022/01/28 11:33:44;;;;;;;40.17;24.02;;;;;;;15.68;39.32;94097.44;4915801;29;20040;-85
2022/01/28 11:36:10;;;;;;;38.85;23.90;;;;;;;15.68;39.36;94086.53;4914203;28;20411;-85
2022/01/28 11:38:40;;;;;;;36.22;21.08;;;;;;;15.70;39.38;94092.28;4896759;29;20044;-84
2022/01/28 11:41:17;;;;;;;34.03;20.05;;;;;;;15.71;39.44;94105.44;4897778;28;20035;-85
2022/01/28 11:43:45;;;;;;;37.25;20.17;;;;;;;15.70;39.29;94111.34;4900034;29;20040;-85
2022/01/28 11:46:22;;;;;;;33.13;19.60;;;;;;;15.69;39.52;94120.75;4897203;28;20043;-85
2022/01/28 11:49:01;;;;;;;28.15;17.48;;;;;;;15.68;39.32;94122.72;4914804;29;20047;-85
2022/01/28 11:51:35;;;;;;;32.72;17.90;;;;;;;15.70;39.24;94114.81;4910880;29;20048;-85
2022/01/28 11:54:08;;;;;;;34.60;19.27;;;;;;;15.72;39.50;94126.00;4896674;29;20162;-85
2022/01/28 11:57:01;;;;;;;30.63;17.27;;;;;;;15.69;39.32;94140.59;4906089;29;20179;-84
2022/01/28 11:59:28;;;;;;;27.55;16.50;;;;;;;15.71;39.55;94135.41;4917788;28;20044;-85
2022/01/28 12:01:53;;;;;;;29.90;17.55;;;;;;;15.73;39.49;94132.97;4914739;29;20047;-85
2022/01/28 12:04:29;;;;;;;27.23;16.02;;;;;;;15.70;39.25;94139.34;4931569;28;20036;-85
2022/01/28 12:06:55;;;;;;;23.33;14.65;;;;;;;15.69;39.44;94137.09;4931782;28;20415;-85
2022/01/28 12:09:22;;;;;;;33.08;16.02;;;;;;;15.74;39.28;94126.28;4898153;28;20495;-85
2022/01/28 12:11:47;;;;;;;31.67;16.05;;;;;;;15.71;39.42;94134.66;4898630;29;20051;-85
2022/01/28 12:14:14;;;;;;;29.63;16.92;;;;;;;15.70;39.58;94127.69;4916689;28;20041;-85
2022/01/28 12:16:45;;;;;;;28.77;16.38;;;;;;;15.67;39.77;94132.13;4922441;29;20422;-85
2022/01/28 12:19:18;;;;;;;26.25;14.90;;;;;;;15.66;39.38;94136.06;4937581;28;20090;-85
2022/01/28 12:22:03;;;;;;;35.22;17.38;;;;;;;15.70;39.37;94124.97;4937063;28;20102;-85
2022/01/28 12:24:35;;;;;;;24.38;13.05;;;;;;;15.68;39.37;94149.22;4925735;29;20035;-85
2022/01/28 12:27:02;;;;;;;25.70;14.80;;;;;;;15.72;39.62;94139.63;4937984;28;20491;-85
2022/01/28 12:29:30;;;;;;;25.20;16.10;;;;;;;15.69;39.37;94139.81;4938569;28;20039;-86
2022/01/28 12:31:56;;;;;;;27.85;14.50;;;;;;;15.69;39.36;94132.41;4922292;29;20344;-85
2022/01/28 12:34:22;;;;;;;27.30;15.75;;;;;;;15.70;39.19;94127.69;4937570;28;20080;-85
2022/01/28 12:36:48;;;;;;;35.72;14.93;;;;;;;15.72;39.48;94139.63;4921767;29;20039;-84
2022/01/28 12:39:20;;;;;;;29.73;13.95;;;;;;;15.71;39.11;94148.28;4905226;28;20043;-85
2022/01/28 12:42:03;;;;;;;19.60;12.20;;;;;;;15.70;39.62;94149.50;4921965;29;20054;-85
2022/01/28 12:44:30;;;;;;;36.67;14.68;;;;;;;15.69;39.42;94146.03;4923080;28;20043;-85
2022/01/28 12:46:57;;;;;;;22.30;13.07;;;;;;;15.72;39.51;94147.81;4921215;29;20043;-84
2022/01/28 12:49:27;;;;;;;36.22;12.75;;;;;;;15.68;39.56;94146.50;4910751;28;20399;-85